Time;durP1;ratioP1;P1;durP2;ratioP2;P2;SDS_P1;SDS_P2;PMS_P1;PMS_P2;Temp;Humidity;BMP_temperature;BMP_pressure;BME280_temperature;BME280_humidity;BME280_pressure;Samples;Min_cycle;Max_cycle;Signal;HPM_P1;HPM_P2
2022/06/26 00:01:23;;;;;;;17.45;11.13;;;16.60;99.90;;;;;;5072877;28;20028;-64
2022/06/26 00:03:49;;;;;;;19.13;12.40;;;16.70;99.90;;;;;;5072576;28;20035;-64
2022/06/26 00:06:15;;;;;;;20.90;12.27;;;16.90;99.90;;;;;;5072685;28;20501;-63
2022/06/26 00:08:41;;;;;;;15.88;11.38;;;16.90;99.90;;;;;;5072422;28;20434;-64
2022/06/26 00:11:07;;;;;;;16.58;11.90;;;16.80;99.90;;;;;;5072497;28;20017;-63
2022/06/26 00:13:33;;;;;;;22.48;11.60;;;16.80;99.90;;;;;;5072915;28;20146;-63
2022/06/26 00:15:59;;;;;;;18.60;12.05;;;16.60;99.90;;;;;;5072393;28;20123;-64
2022/06/26 00:18:25;;;;;;;24.13;11.13;;;16.70;99.90;;;;;;5072429;28;20017;-64
2022/06/26 00:20:50;;;;;;;14.63;10.90;;;16.60;99.90;;;;;;5072511;28;20116;-64
2022/06/26 00:23:16;;;;;;;20.10;12.13;;;16.40;99.90;;;;;;5072549;28;20086;-63
2022/06/26 00:25:42;;;;;;;22.15;12.35;;;16.40;99.90;;;;;;5072511;28;20379;-63
2022/06/26 00:28:08;;;;;;;21.35;11.38;;;16.20;99.90;;;;;;5072552;28;20094;-63
2022/06/26 00:30:33;;;;;;;18.25;11.80;;;16.20;99.90;;;;;;5071109;28;20021;-63
2022/06/26 00:32:59;;;;;;;18.35;11.40;;;16.20;99.90;;;;;;5070643;28;20036;-64
2022/06/26 00:35:25;;;;;;;17.85;11.40;;;16.20;99.90;;;;;;5071040;28;20017;-64
2022/06/26 00:37:51;;;;;;;21.95;11.38;;;16.00;99.90;;;;;;5070902;28;20032;-63
2022/06/26 00:40:16;;;;;;;26.33;12.32;;;16.00;99.90;;;;;;5071112;28;20361;-63
2022/06/26 00:42:43;;;;;;;17.75;12.27;;;16.00;99.90;;;;;;5070895;28;20511;-63
2022/06/26 00:45:09;;;;;;;21.73;11.90;;;15.90;99.90;;;;;;5072602;28;20064;-63
2022/06/26 00:47:35;;;;;;;15.55;10.95;;;15.90;99.90;;;;;;5070340;22;20037;-71
2022/06/26 00:50:01;;;;;;;17.23;12.10;;;16.00;99.90;;;;;;5052360;28;20021;-71
2022/06/26 00:52:28;;;;;;;20.27;11.50;;;16.00;99.90;;;;;;5053004;28;20021;-71
2022/06/26 00:54:55;;;;;;;20.38;9.80;;;16.10;99.90;;;;;;5051040;28;20025;-71
2022/06/26 00:57:21;;;;;;;19.45;10.82;;;15.90;99.90;;;;;;5052192;28;20496;-69
2022/06/26 00:59:48;;;;;;;16.52;10.40;;;15.90;99.90;;;;;;5050972;28;20033;-71
2022/06/26 01:02:14;;;;;;;19.65;10.43;;;15.80;99.90;;;;;;5050787;28;20459;-70
2022/06/26 01:04:41;;;;;;;18.52;10.50;;;15.70;99.90;;;;;;5053875;28;20029;-70
2022/06/26 01:07:08;;;;;;;14.98;9.07;;;15.70;99.90;;;;;;5054526;28;20029;-71
2022/06/26 01:09:34;;;;;;;17.92;10.05;;;15.70;99.90;;;;;;5055896;28;20103;-70
2022/06/26 01:12:00;;;;;;;21.90;9.43;;;15.70;99.90;;;;;;5055824;28;20179;-72
2022/06/26 01:14:26;;;;;;;17.70;10.60;;;15.50;99.90;;;;;;5054569;28;20432;-69
2022/06/26 01:16:53;;;;;;;25.25;9.70;;;15.40;99.90;;;;;;5054537;28;20528;-71
2022/06/26 01:19:20;;;;;;;21.20;9.38;;;15.50;99.90;;;;;;5054557;28;20021;-71
2022/06/26 01:21:46;;;;;;;20.80;9.30;;;15.40;99.90;;;;;;5054465;28;20029;-70
2022/06/26 01:24:13;;;;;;;25.27;10.43;;;15.50;99.90;;;;;;5055785;28;20041;-70
2022/06/26 01:26:41;;;;;;;20.20;9.52;;;15.50;99.90;;;;;;5054226;28;20072;-71
2022/06/26 01:29:07;;;;;;;17.25;9.65;;;15.50;99.90;;;;;;5054149;28;20481;-71
2022/06/26 01:31:34;;;;;;;21.02;9.30;;;15.50;99.90;;;;;;5055741;28;20032;-71
2022/06/26 01:34:04;;;;;;;18.92;9.20;;;15.40;99.90;;;;;;5055636;28;20029;-71
2022/06/26 01:36:30;;;;;;;18.65;9.00;;;15.50;99.90;;;;;;5055609;28;20024;-71
2022/06/26 01:38:57;;;;;;;23.42;8.68;;;15.50;99.90;;;;;;5054033;28;20025;-71
2022/06/26 01:41:24;;;;;;;24.95;9.30;;;15.50;99.90;;;;;;5054209;28;20024;-71
2022/06/26 01:43:50;;;;;;;16.77;9.13;;;15.60;99.90;;;;;;5053780;28;20033;-71
2022/06/26 01:46:18;;;;;;;20.52;8.95;;;15.60;99.90;;;;;;5050141;28;20025;-70
2022/06/26 01:48:43;;;;;;;18.48;9.02;;;15.60;99.90;;;;;;5044577;28;20119;-71
2022/06/26 01:51:12;;;;;;;14.40;8.57;;;15.40;99.90;;;;;;5055245;28;20017;-70
2022/06/26 01:53:41;;;;;;;14.10;8.73;;;15.50;99.90;;;;;;5053879;28;20029;-70
2022/06/26 01:56:08;;;;;;;19.33;8.18;;;15.40;99.90;;;;;;5053935;28;20025;-69
2022/06/26 01:58:38;;;;;;;13.98;9.20;;;15.10;99.90;;;;;;5053469;28;20265;-72
2022/06/26 02:01:07;;;;;;;15.30;8.95;;;15.10;99.90;;;;;;5053909;28;20029;-70
2022/06/26 02:03:33;;;;;;;20.17;9.07;;;15.10;99.90;;;;;;5053426;28;20025;-69
2022/06/26 02:05:58;;;;;;;15.30;8.55;;;15.10;99.90;;;;;;5055329;28;20128;-71
2022/06/26 02:08:24;;;;;;;22.83;8.70;;;15.10;99.90;;;;;;5054689;28;20377;-70
2022/06/26 02:13:42;;;;;;;21.85;9.65;;;15.20;99.90;;;;;;5052943;28;20520;-70
2022/06/26 02:16:19;;;;;;;19.13;7.90;;;15.20;99.90;;;;;;5053259;28;20499;-70
2022/06/26 02:18:47;;;;;;;18.00;8.55;;;15.10;99.90;;;;;;5053037;28;20292;-71
2022/06/26 02:21:15;;;;;;;14.45;8.70;;;15.20;99.90;;;;;;5053563;28;20119;-70
2022/06/26 02:23:43;;;;;;;18.27;9.20;;;15.20;99.90;;;;;;5054416;28;20043;-70
2022/06/26 02:26:09;;;;;;;18.75;8.85;;;15.00;99.90;;;;;;5053381;28;20013;-69
2022/06/26 02:28:38;;;;;;;14.35;8.77;;;14.90;99.90;;;;;;5052646;28;20063;-69
2022/06/26 02:31:04;;;;;;;16.60;7.97;;;14.80;99.90;;;;;;5053242;28;20025;-71
2022/06/26 02:33:35;;;;;;;15.20;8.20;;;14.70;99.90;;;;;;5054515;28;20394;-69
2022/06/26 02:36:02;;;;;;;16.23;8.88;;;14.70;99.90;;;;;;5054630;28;20021;-71
2022/06/26 02:38:28;;;;;;;19.50;9.65;;;14.70;99.90;;;;;;5054356;28;20029;-70
2022/06/26 02:40:54;;;;;;;19.88;8.85;;;14.70;99.90;;;;;;5052939;28;20373;-71
2022/06/26 02:43:23;;;;;;;17.13;8.80;;;14.80;99.90;;;;;;5052513;28;20029;-70
2022/06/26 02:45:50;;;;;;;16.98;9.77;;;14.90;99.90;;;;;;5052686;28;20025;-72
2022/06/26 02:48:16;;;;;;;16.70;10.05;;;14.90;99.90;;;;;;5039822;28;20378;-71
2022/06/26 02:50:42;;;;;;;15.73;8.88;;;14.80;99.90;;;;;;5054446;28;20032;-71
2022/06/26 02:53:09;;;;;;;21.02;9.88;;;14.80;99.90;;;;;;5052630;28;20040;-70
2022/06/26 02:55:36;;;;;;;17.65;9.35;;;14.80;99.90;;;;;;5052743;28;20039;-69
2022/06/26 02:58:03;;;;;;;21.00;9.77;;;14.90;99.90;;;;;;5052261;28;20492;-68
2022/06/26 03:00:33;;;;;;;30.15;10.07;;;14.90;99.90;;;;;;5052527;28;20546;-69
2022/06/26 03:03:03;;;;;;;20.88;9.43;;;14.90;99.90;;;;;;5052628;28;20048;-70
2022/06/26 03:05:30;;;;;;;19.92;10.07;;;14.90;99.90;;;;;;5052661;28;20025;-70
2022/06/26 03:07:56;;;;;;;17.25;9.13;;;14.90;99.90;;;;;;5053402;28;20428;-69
2022/06/26 03:10:23;;;;;;;15.02;9.30;;;14.90;99.90;;;;;;5052444;28;20028;-69
2022/06/26 03:12:50;;;;;;;19.95;10.05;;;15.00;99.90;;;;;;5053561;28;20031;-70
2022/06/26 03:15:17;;;;;;;22.15;10.73;;;14.90;99.90;;;;;;5053619;28;20029;-69
2022/06/26 03:17:43;;;;;;;15.70;9.55;;;15.10;99.90;;;;;;5052332;28;20039;-68
2022/06/26 03:20:13;;;;;;;17.73;9.65;;;14.90;99.90;;;;;;5052156;28;20454;-68
2022/06/26 03:22:41;;;;;;;13.18;9.52;;;14.70;99.90;;;;;;5052114;28;20381;-70
2022/06/26 03:25:08;;;;;;;22.10;10.43;;;14.60;99.90;;;;;;5051754;28;20445;-70
2022/06/26 03:27:36;;;;;;;15.85;9.18;;;14.70;99.90;;;;;;5051397;28;20029;-71
2022/06/26 03:30:03;;;;;;;17.98;9.23;;;14.70;99.90;;;;;;5051993;28;20104;-70
2022/06/26 03:32:30;;;;;;;16.38;9.38;;;14.60;99.90;;;;;;5052326;28;20036;-68
2022/06/26 03:35:05;;;;;;;18.08;9.32;;;14.70;99.90;;;;;;5051553;28;20512;-69
2022/06/26 03:37:32;;;;;;;17.80;9.30;;;14.80;99.90;;;;;;5052025;28;20021;-69
2022/06/26 03:39:59;;;;;;;20.92;9.18;;;14.70;99.90;;;;;;5053156;28;20044;-71
2022/06/26 03:42:25;;;;;;;18.85;9.32;;;14.80;99.90;;;;;;5051871;28;20035;-68
2022/06/26 03:44:52;;;;;;;14.82;9.35;;;14.80;99.90;;;;;;5051709;28;20063;-69
2022/06/26 03:47:18;;;;;;;19.55;8.90;;;14.80;99.90;;;;;;5040930;28;20038;-69
2022/06/26 03:49:52;;;;;;;15.03;7.90;;;14.90;99.90;;;;;;5051477;28;20490;-69
2022/06/26 03:52:24;;;;;;;13.48;8.15;;;14.90;99.90;;;;;;5051870;28;20035;-69
2022/06/26 03:54:52;;;;;;;19.20;9.32;;;14.90;99.90;;;;;;5051366;28;20025;-70
2022/06/26 03:57:21;;;;;;;16.23;9.30;;;14.90;99.90;;;;;;5051804;28;20036;-71
2022/06/26 03:59:48;;;;;;;20.52;9.90;;;14.90;99.90;;;;;;5051309;28;20032;-70
2022/06/26 04:02:23;;;;;;;16.88;8.35;;;14.80;99.90;;;;;;5051806;28;20032;-70
2022/06/26 04:04:49;;;;;;;16.88;9.18;;;14.80;99.90;;;;;;5051489;28;20045;-68
2022/06/26 04:07:15;;;;;;;18.50;8.75;;;14.70;99.90;;;;;;5051580;28;20025;-69
2022/06/26 04:09:44;;;;;;;12.13;7.53;;;14.80;99.90;;;;;;5051231;28;20025;-70
2022/06/26 04:12:14;;;;;;;16.00;8.57;;;14.70;99.90;;;;;;5051618;28;20029;-70
2022/06/26 04:14:41;;;;;;;17.10;9.10;;;14.70;99.90;;;;;;5051472;28;20028;-69
2022/06/26 04:17:07;;;;;;;16.30;8.50;;;14.80;99.90;;;;;;5053037;28;20025;-70
2022/06/26 04:19:37;;;;;;;16.10;8.55;;;14.80;99.90;;;;;;5052544;28;20037;-70
2022/06/26 04:22:03;;;;;;;20.70;8.55;;;14.90;99.90;;;;;;5051408;28;20025;-70
2022/06/26 04:24:29;;;;;;;14.70;8.52;;;14.90;99.90;;;;;;5051227;28;20128;-70
2022/06/26 04:26:55;;;;;;;18.75;8.23;;;14.80;99.90;;;;;;5051294;28;20521;-71
2022/06/26 04:29:21;;;;;;;12.52;8.20;;;14.90;99.90;;;;;;5051235;28;20056;-71
2022/06/26 04:31:46;;;;;;;17.20;8.38;;;14.90;99.90;;;;;;5052562;28;20029;-71
2022/06/26 04:34:13;;;;;;;14.00;7.68;;;14.90;99.90;;;;;;5051368;28;20103;-69
2022/06/26 04:36:39;;;;;;;11.95;7.75;;;14.70;99.90;;;;;;5051391;28;20128;-70
2022/06/26 04:39:05;;;;;;;16.00;8.13;;;14.90;99.90;;;;;;5053137;28;20056;-70
2022/06/26 04:41:36;;;;;;;12.13;7.50;;;15.10;99.90;;;;;;5055121;28;20036;-70
2022/06/26 04:44:05;;;;;;;13.25;8.13;;;15.20;99.90;;;;;;5055190;28;20557;-70
2022/06/26 04:46:32;;;;;;;23.40;8.90;;;15.20;99.90;;;;;;5049458;28;20032;-70
2022/06/26 04:48:58;;;;;;;16.58;8.15;;;15.10;99.90;;;;;;5047939;28;20025;-69
2022/06/26 04:51:25;;;;;;;17.00;8.25;;;15.10;99.90;;;;;;5055007;28;20604;-70
2022/06/26 04:53:52;;;;;;;12.80;7.22;;;15.10;99.90;;;;;;5054979;28;20461;-68
2022/06/26 04:56:18;;;;;;;13.90;8.05;;;15.30;99.90;;;;;;5054685;28;20025;-70
2022/06/26 04:58:48;;;;;;;20.08;8.02;;;15.20;99.90;;;;;;5055069;28;20029;-70
2022/06/26 05:01:15;;;;;;;13.05;7.97;;;15.40;99.90;;;;;;5054824;28;20028;-69
2022/06/26 05:03:58;;;;;;;15.15;6.97;;;15.40;99.90;;;;;;5055100;28;20063;-70
2022/06/26 05:06:34;;;;;;;13.65;7.57;;;15.30;99.90;;;;;;5054352;28;20025;-68
2022/06/26 05:09:26;;;;;;;14.50;7.63;;;15.20;99.90;;;;;;5054565;28;20045;-71
2022/06/26 05:11:52;;;;;;;15.98;8.02;;;15.50;99.90;;;;;;5054631;28;20600;-70
2022/06/26 05:14:18;;;;;;;15.88;7.82;;;15.50;99.90;;;;;;5054797;28;20439;-69
2022/06/26 05:16:50;;;;;;;14.68;7.63;;;15.80;99.90;;;;;;5054494;28;20032;-70
2022/06/26 05:19:20;;;;;;;22.65;8.38;;;16.00;99.90;;;;;;5054453;28;20033;-71
2022/06/26 05:21:46;;;;;;;16.30;7.47;;;16.10;99.90;;;;;;5055506;28;20028;-69
2022/06/26 05:24:11;;;;;;;15.60;7.05;;;15.80;99.90;;;;;;5055914;28;20136;-71
2022/06/26 05:26:44;;;;;;;19.90;6.97;;;15.70;99.90;;;;;;5054313;28;20032;-68
2022/06/26 05:29:10;;;;;;;17.45;7.28;;;15.70;99.90;;;;;;5054351;28;20029;-69
2022/06/26 05:31:35;;;;;;;12.75;7.65;;;15.50;99.90;;;;;;5055764;28;20025;-68
2022/06/26 05:34:01;;;;;;;13.07;7.22;;;15.70;99.90;;;;;;5054396;28;20021;-68
2022/06/26 05:36:27;;;;;;;12.35;7.20;;;15.50;99.90;;;;;;5054146;28;20409;-68
2022/06/26 05:38:53;;;;;;;17.80;7.50;;;15.60;99.90;;;;;;5055344;28;20355;-70
2022/06/26 05:41:19;;;;;;;13.98;7.25;;;15.40;99.90;;;;;;5054192;28;20029;-70
2022/06/26 05:43:45;;;;;;;17.65;7.38;;;15.60;99.90;;;;;;5053989;28;20037;-69
2022/06/26 05:46:12;;;;;;;14.55;7.30;;;15.80;99.90;;;;;;5052060;28;20492;-71
2022/06/26 05:48:58;;;;;;;14.35;6.50;;;15.80;99.90;;;;;;5017230;28;20065;-68
2022/06/26 05:51:24;;;;;;;18.23;6.90;;;15.80;99.90;;;;;;5054379;28;20559;-69
2022/06/26 05:54:05;;;;;;;21.38;6.85;;;15.80;99.90;;;;;;5053717;28;20025;-69
2022/06/26 05:56:38;;;;;;;11.60;6.40;;;15.80;99.90;;;;;;5053880;28;20109;-69
2022/06/26 05:59:36;;;;;;;13.02;6.43;;;15.90;99.90;;;;;;5021190;28;20036;-69
2022/06/26 06:02:11;;;;;;;11.80;6.63;;;15.60;99.90;;;;;;5054288;28;20025;-70
2022/06/26 06:04:38;;;;;;;14.88;6.40;;;15.60;99.90;;;;;;5053267;28;20052;-69
2022/06/26 06:07:05;;;;;;;16.85;6.60;;;15.70;99.90;;;;;;5052915;28;20017;-69
2022/06/26 06:09:31;;;;;;;17.92;6.03;;;15.70;99.90;;;;;;5054194;28;20040;-67
2022/06/26 06:11:57;;;;;;;17.45;6.47;;;15.80;99.90;;;;;;5048234;28;20023;-68
2022/06/26 06:14:23;;;;;;;8.95;5.90;;;15.90;99.90;;;;;;5052651;28;20021;-69
2022/06/26 06:16:50;;;;;;;18.95;5.95;;;15.90;99.90;;;;;;5050917;28;20025;-69
2022/06/26 06:19:16;;;;;;;16.17;6.68;;;16.10;99.90;;;;;;5029898;28;20045;-68
2022/06/26 06:21:44;;;;;;;13.57;6.20;;;16.50;99.90;;;;;;5048210;28;20058;-68
2022/06/26 06:24:10;;;;;;;9.95;5.78;;;16.40;99.90;;;;;;5051711;28;20060;-68
2022/06/26 06:26:37;;;;;;;19.30;6.78;;;16.50;99.90;;;;;;5052796;28;20378;-68
2022/06/26 06:29:19;;;;;;;18.85;5.68;;;16.60;99.90;;;;;;5051175;28;20075;-70
2022/06/26 06:31:45;;;;;;;11.65;5.30;;;16.60;99.90;;;;;;5051878;28;20025;-68
2022/06/26 06:34:13;;;;;;;13.48;5.65;;;16.70;99.90;;;;;;5051560;28;20025;-67
2022/06/26 06:36:39;;;;;;;12.35;5.70;;;16.70;99.90;;;;;;5051618;28;20075;-67
2022/06/26 06:39:06;;;;;;;8.35;5.70;;;16.70;99.90;;;;;;5032394;28;20021;-68
2022/06/26 06:41:32;;;;;;;9.45;5.40;;;16.90;99.90;;;;;;5044249;28;20447;-68
2022/06/26 06:44:04;;;;;;;15.77;5.75;;;16.70;99.90;;;;;;5040106;28;20041;-69
2022/06/26 06:46:30;;;;;;;14.68;5.20;;;16.50;99.90;;;;;;5038224;28;20088;-67
2022/06/26 06:49:00;;;;;;;16.75;5.70;;;16.50;99.90;;;;;;5048173;28;20124;-66
2022/06/26 06:51:31;;;;;;;11.52;5.72;;;16.50;99.90;;;;;;5051096;28;20021;-69
2022/06/26 06:53:57;;;;;;;7.80;5.22;;;16.50;99.90;;;;;;5051773;28;20124;-69
2022/06/26 06:56:23;;;;;;;11.35;5.53;;;16.50;99.90;;;;;;5052219;28;20037;-67
2022/06/26 06:58:48;;;;;;;15.40;5.50;;;16.60;99.90;;;;;;5047343;28;20074;-68
2022/06/26 07:01:14;;;;;;;8.80;5.72;;;16.30;99.90;;;;;;5039303;28;20465;-68
2022/06/26 07:03:40;;;;;;;9.57;5.50;;;16.60;99.90;;;;;;5049892;28;20044;-69
2022/06/26 07:06:06;;;;;;;13.95;5.35;;;16.60;99.90;;;;;;5051642;28;20481;-69
2022/06/26 07:08:33;;;;;;;12.50;5.50;;;16.70;99.90;;;;;;5055710;28;20025;-69
2022/06/26 07:11:00;;;;;;;11.20;5.53;;;16.80;99.90;;;;;;5050667;28;20063;-69
2022/06/26 07:13:25;;;;;;;9.27;5.88;;;17.10;99.90;;;;;;5062454;28;20058;-69
2022/06/26 07:15:51;;;;;;;16.02;5.90;;;17.10;99.90;;;;;;5060844;28;20020;-68
2022/06/26 07:18:17;;;;;;;15.85;5.70;;;16.90;99.90;;;;;;5065355;28;20500;-69
2022/06/26 07:20:43;;;;;;;11.07;6.10;;;16.90;99.90;;;;;;5061550;28;20479;-69
2022/06/26 07:23:09;;;;;;;11.35;5.28;;;16.90;99.90;;;;;;5069307;28;20043;-69
2022/06/26 07:25:58;;;;;;;12.65;5.97;;;17.00;99.90;;;;;;5066974;28;20056;-68
2022/06/26 07:28:31;;;;;;;9.95;4.85;;;17.20;99.90;;;;;;5067089;28;20040;-68
2022/06/26 07:30:58;;;;;;;9.27;5.55;;;17.60;99.90;;;;;;5069210;28;20222;-69
2022/06/26 07:36:08;;;;;;;8.77;5.45;;;17.50;99.90;;;;;;5051295;28;20036;-71
2022/06/26 07:38:35;;;;;;;8.45;4.63;;;17.60;99.90;;;;;;5035843;28;20028;-68
2022/06/26 07:41:01;;;;;;;8.40;4.95;;;17.70;99.90;;;;;;5050003;28;20025;-68
2022/06/26 07:43:27;;;;;;;18.98;5.32;;;17.50;99.90;;;;;;5052143;28;20040;-68
2022/06/26 07:45:53;;;;;;;11.93;4.85;;;17.60;99.90;;;;;;5042527;28;20033;-70
2022/06/26 07:48:20;;;;;;;10.93;4.95;;;17.90;99.90;;;;;;5054451;28;20024;-68
2022/06/26 07:50:46;;;;;;;12.38;4.90;;;17.80;99.90;;;;;;5054901;28;20074;-67
2022/06/26 07:53:12;;;;;;;9.93;5.28;;;17.50;99.90;;;;;;5051686;28;20036;-69
2022/06/26 07:55:38;;;;;;;9.18;5.03;;;17.80;99.90;;;;;;5051475;28;20029;-71
2022/06/26 07:58:04;;;;;;;8.75;5.10;;;18.10;99.90;;;;;;5051510;28;20029;-70
2022/06/26 08:00:30;;;;;;;9.70;4.90;;;17.90;99.90;;;;;;5043124;28;20110;-69
2022/06/26 08:03:07;;;;;;;13.88;4.63;;;17.80;99.90;;;;;;5053553;28;20036;-68
2022/06/26 08:05:32;;;;;;;9.57;5.03;;;17.70;99.90;;;;;;5050031;28;20486;-68
2022/06/26 08:07:58;;;;;;;8.10;4.22;;;17.70;99.90;;;;;;5047352;28;20021;-68
2022/06/26 08:10:24;;;;;;;9.05;4.32;;;17.90;99.90;;;;;;5042470;28;20028;-68
2022/06/26 08:12:50;;;;;;;9.15;4.60;;;18.00;99.90;;;;;;5051678;28;20535;-69
2022/06/26 08:15:16;;;;;;;12.98;4.78;;;17.90;99.90;;;;;;5051219;28;20385;-69
2022/06/26 08:17:41;;;;;;;12.88;5.22;;;18.20;99.90;;;;;;5044725;28;20367;-69
2022/06/26 08:20:08;;;;;;;8.70;4.57;;;18.20;99.90;;;;;;5048019;28;20496;-70
2022/06/26 08:22:34;;;;;;;8.75;4.50;;;18.40;99.90;;;;;;5051799;28;20104;-68
2022/06/26 08:24:59;;;;;;;16.75;4.97;;;18.20;99.90;;;;;;5050968;28;20123;-68
2022/06/26 08:27:25;;;;;;;10.70;5.15;;;18.20;99.90;;;;;;5051700;28;20071;-68
2022/06/26 08:29:51;;;;;;;9.82;4.78;;;18.40;99.90;;;;;;5048645;28;20029;-69
2022/06/26 08:32:17;;;;;;;12.63;4.20;;;18.40;99.90;;;;;;5050102;28;20017;-69
2022/06/26 08:34:43;;;;;;;8.88;4.70;;;18.50;99.90;;;;;;5050338;28;20053;-69
2022/06/26 08:37:09;;;;;;;12.10;5.13;;;18.70;99.90;;;;;;5045644;28;20461;-69
2022/06/26 08:39:35;;;;;;;15.52;5.38;;;18.80;99.90;;;;;;5052399;28;20033;-68
2022/06/26 08:42:04;;;;;;;12.82;4.47;;;18.90;99.90;;;;;;5046912;28;20075;-69
2022/06/26 08:44:31;;;;;;;14.65;4.88;;;18.70;99.90;;;;;;5052239;28;20036;-69
2022/06/26 08:46:58;;;;;;;9.32;4.40;;;18.60;99.90;;;;;;5042815;28;20030;-68
2022/06/26 08:49:24;;;;;;;11.40;5.18;;;18.70;99.90;;;;;;5048477;28;20075;-69
2022/06/26 08:51:51;;;;;;;12.98;4.70;;;18.80;99.90;;;;;;5052079;28;20036;-70
2022/06/26 08:54:19;;;;;;;10.98;4.47;;;19.00;99.90;;;;;;5052161;28;20032;-69
2022/06/26 08:56:48;;;;;;;7.50;3.88;;;19.20;99.90;;;;;;5052163;28;20031;-69
2022/06/26 08:59:17;;;;;;;8.93;4.18;;;19.20;99.90;;;;;;5051822;28;20029;-70
2022/06/26 09:01:44;;;;;;;10.60;4.45;;;19.40;99.90;;;;;;5051929;28;20033;-69
2022/06/26 09:04:11;;;;;;;9.35;4.60;;;19.40;99.90;;;;;;5052004;28;20033;-69
2022/06/26 09:06:38;;;;;;;9.80;4.68;;;19.50;99.90;;;;;;5051945;28;20025;-70
2022/06/26 09:09:18;;;;;;;10.57;4.35;;;19.30;99.90;;;;;;5051979;28;20091;-68
2022/06/26 09:11:45;;;;;;;7.95;5.13;;;18.80;99.90;;;;;;5051968;28;20040;-70
2022/06/26 09:14:13;;;;;;;8.00;4.55;;;18.90;99.90;;;;;;5051637;28;20100;-70
2022/06/26 09:16:42;;;;;;;11.27;4.40;;;19.00;99.90;;;;;;5052021;28;20021;-70
2022/06/26 09:19:09;;;;;;;16.73;4.53;;;19.00;99.90;;;;;;5051924;28;20029;-67
2022/06/26 09:21:35;;;;;;;9.02;3.85;;;19.20;99.90;;;;;;5050480;28;20370;-69
2022/06/26 09:24:02;;;;;;;12.35;3.90;;;19.50;99.90;;;;;;5051852;28;20021;-68
2022/06/26 09:26:28;;;;;;;10.38;3.90;;;19.60;99.90;;;;;;5054664;28;20021;-72
2022/06/26 09:28:54;;;;;;;14.48;3.40;;;19.60;99.90;;;;;;5054922;28;20392;-70
2022/06/26 09:31:21;;;;;;;11.43;4.28;;;19.30;99.90;;;;;;5055463;28;20025;-70
2022/06/26 09:33:48;;;;;;;7.90;3.90;;;19.40;99.90;;;;;;5053045;28;20025;-70
2022/06/26 09:36:17;;;;;;;9.10;3.88;;;19.30;99.90;;;;;;5055360;28;20021;-70
2022/06/26 09:38:51;;;;;;;11.35;3.95;;;19.50;99.90;;;;;;5055192;28;20106;-69
2022/06/26 09:41:29;;;;;;;8.50;4.00;;;19.30;99.90;;;;;;5055203;28;20029;-70
2022/06/26 09:43:57;;;;;;;8.60;3.88;;;19.50;99.90;;;;;;5054717;28;20087;-69
2022/06/26 09:46:29;;;;;;;11.80;4.32;;;19.90;99.90;;;;;;5050101;28;20104;-69
2022/06/26 09:48:57;;;;;;;10.13;4.55;;;20.20;99.90;;;;;;5047386;28;20037;-69
2022/06/26 09:51:24;;;;;;;7.85;3.80;;;19.90;99.90;;;;;;5054956;28;20027;-68
2022/06/26 09:53:50;;;;;;;9.57;4.07;;;19.70;99.90;;;;;;5051870;28;20478;-70
2022/06/26 09:56:17;;;;;;;10.32;4.00;;;19.40;99.90;;;;;;5043736;28;20397;-70
2022/06/26 09:58:43;;;;;;;7.07;3.85;;;19.60;99.90;;;;;;5054531;28;20029;-67
2022/06/26 10:06:43;;;;;;;14.63;3.33;;;19.60;99.90;;;;;;5054218;28;20028;-69
2022/06/26 10:09:10;;;;;;;10.60;3.58;;;19.40;99.90;;;;;;5052432;28;20033;-69
2022/06/26 10:11:39;;;;;;;6.78;3.10;;;19.60;99.90;;;;;;5058227;28;20106;-69
2022/06/26 10:14:20;;;;;;;6.70;2.83;;;19.70;99.90;;;;;;5054204;28;20017;-69
2022/06/26 10:16:51;;;;;;;12.95;3.92;;;19.30;99.90;;;;;;5049997;28;20025;-69
2022/06/26 10:19:44;;;;;;;7.47;3.72;;;19.60;99.90;;;;;;5055944;28;20032;-68
2022/06/26 10:22:11;;;;;;;9.95;3.55;;;19.70;99.90;;;;;;5051978;28;20151;-68
2022/06/26 10:25:00;;;;;;;10.68;2.97;;;19.60;99.90;;;;;;5043307;28;20045;-69
2022/06/26 10:27:31;;;;;;;14.13;3.10;;;19.70;99.90;;;;;;5048014;28;20020;-68
2022/06/26 10:30:08;;;;;;;10.18;3.38;;;19.80;99.90;;;;;;5067272;28;20024;-69
2022/06/26 10:32:35;;;;;;;16.58;2.60;;;20.00;99.90;;;;;;5051829;28;20025;-69
2022/06/26 10:35:00;;;;;;;10.82;3.03;;;20.40;99.90;;;;;;5050167;28;20059;-68
2022/06/26 10:37:37;;;;;;;12.40;2.42;;;20.10;99.90;;;;;;5048849;28;20053;-69
2022/06/26 10:40:12;;;;;;;10.60;2.78;;;20.30;99.90;;;;;;5059475;28;20035;-70
2022/06/26 10:42:52;;;;;;;6.03;2.55;;;20.30;99.90;;;;;;5061699;28;20068;-70
2022/06/26 10:45:31;;;;;;;7.82;2.47;;;20.00;99.90;;;;;;5053825;28;20536;-70
2022/06/26 10:48:00;;;;;;;7.97;2.80;;;19.90;99.90;;;;;;5049146;28;20021;-71
2022/06/26 10:50:31;;;;;;;8.57;3.00;;;20.40;99.90;;;;;;5053441;28;20025;-70
2022/06/26 10:53:26;;;;;;;7.73;3.03;;;20.30;99.90;;;;;;5055758;28;20104;-69
2022/06/26 10:56:05;;;;;;;10.48;2.97;;;20.70;99.90;;;;;;5050208;28;20744;-69
2022/06/26 10:58:35;;;;;;;6.38;2.22;;;21.00;99.90;;;;;;5033947;28;20025;-70
2022/06/26 11:01:03;;;;;;;5.18;2.13;;;20.70;99.90;;;;;;5053619;28;20045;-70
2022/06/26 11:03:30;;;;;;;8.60;1.95;;;20.80;99.90;;;;;;5049112;28;20033;-69
2022/06/26 11:06:04;;;;;;;9.32;2.40;;;20.50;99.90;;;;;;5045049;28;20041;-69
2022/06/26 11:08:45;;;;;;;6.50;2.55;;;20.70;99.90;;;;;;5051514;28;20025;-68
2022/06/26 11:11:23;;;;;;;6.25;2.30;;;20.80;99.90;;;;;;5045707;28;20390;-69
2022/06/26 11:13:55;;;;;;;7.07;2.15;;;20.50;99.90;;;;;;5052528;28;20096;-72
2022/06/26 11:16:34;;;;;;;8.75;1.88;;;20.90;99.90;;;;;;5051956;28;20524;-71
2022/06/26 11:19:03;;;;;;;8.68;2.10;;;21.30;99.90;;;;;;5053429;28;20401;-68
2022/06/26 11:21:30;;;;;;;4.47;1.75;;;21.40;99.90;;;;;;5052379;28;20021;-72
2022/06/26 11:23:56;;;;;;;7.28;1.92;;;21.40;99.90;;;;;;5051736;28;20037;-72
2022/06/26 11:26:23;;;;;;;5.32;2.33;;;21.10;99.90;;;;;;5053154;28;20017;-71
2022/06/26 11:29:00;;;;;;;7.03;2.10;;;21.20;99.90;;;;;;5053239;28;20075;-72
2022/06/26 11:31:30;;;;;;;8.70;2.30;;;21.70;99.90;;;;;;5052638;28;20033;-71
2022/06/26 11:34:16;;;;;;;5.93;1.88;;;21.10;99.90;;;;;;5053049;28;20017;-72
2022/06/26 11:36:59;;;;;;;7.65;2.05;;;21.50;99.90;;;;;;5052513;28;20041;-71
2022/06/26 11:39:45;;;;;;;6.95;2.42;;;21.20;99.90;;;;;;5043897;28;20050;-72
2022/06/26 11:42:22;;;;;;;8.95;2.35;;;21.70;99.90;;;;;;5053096;28;20552;-72
2022/06/26 11:44:49;;;;;;;5.13;1.50;;;22.10;99.40;;;;;;5052798;28;20389;-72
2022/06/26 11:47:15;;;;;;;4.60;1.70;;;22.40;99.90;;;;;;5041386;28;20033;-72
2022/06/26 11:49:41;;;;;;;6.32;2.15;;;22.10;99.90;;;;;;5051126;28;20029;-72
2022/06/26 11:52:08;;;;;;;6.03;1.77;;;22.50;99.90;;;;;;5052781;28;20044;-73
2022/06/26 11:54:34;;;;;;;8.45;2.10;;;22.70;99.90;;;;;;5052588;28;20025;-71
2022/06/26 11:57:09;;;;;;;10.70;2.10;;;23.30;99.90;;;;;;5052906;28;20474;-71
2022/06/26 11:59:43;;;;;;;6.75;1.98;;;23.30;97.60;;;;;;5052861;28;20484;-71
2022/06/26 12:02:23;;;;;;;5.75;1.83;;;22.40;98.70;;;;;;5052972;28;20036;-72
2022/06/26 12:05:00;;;;;;;2.35;1.70;;;22.60;99.90;;;;;;5052700;28;20094;-73
2022/06/26 12:07:27;;;;;;;10.68;1.83;;;23.00;98.00;;;;;;5052454;28;20033;-73
2022/06/26 12:09:53;;;;;;;11.07;2.67;;;23.60;98.50;;;;;;5052575;28;20056;-72
2022/06/26 12:12:19;;;;;;;7.43;2.40;;;23.10;97.70;;;;;;5051649;28;20497;-72
2022/06/26 12:14:52;;;;;;;7.32;1.88;;;23.30;98.60;;;;;;5052707;28;20100;-71
2022/06/26 12:17:23;;;;;;;8.52;2.33;;;22.70;97.20;;;;;;5052642;28;20029;-72
2022/06/26 12:19:49;;;;;;;6.82;2.15;;;22.50;97.70;;;;;;5052696;28;20425;-72
2022/06/26 12:22:31;;;;;;;8.23;2.08;;;22.00;97.40;;;;;;5052450;28;20031;-72
2022/06/26 12:24:57;;;;;;;12.20;2.35;;;22.50;96.40;;;;;;5052734;28;20102;-71
2022/06/26 12:27:37;;;;;;;7.47;2.58;;;22.60;96.70;;;;;;5051308;28;20029;-72
2022/06/26 12:30:18;;;;;;;8.68;2.65;;;23.00;96.90;;;;;;5052567;28;20388;-71
2022/06/26 12:32:44;;;;;;;7.30;3.27;;;23.00;98.00;;;;;;5052749;28;20029;-72
2022/06/26 12:35:09;;;;;;;11.85;3.38;;;23.60;98.20;;;;;;5052642;28;20271;-71
2022/06/26 12:37:35;;;;;;;4.63;2.42;;;24.20;97.90;;;;;;5052186;28;20071;-71
2022/06/26 12:40:01;;;;;;;7.20;3.53;;;23.60;96.50;;;;;;5052765;28;20049;-72
2022/06/26 12:42:27;;;;;;;7.22;3.45;;;24.20;97.10;;;;;;5052210;28;20024;-72
2022/06/26 12:44:53;;;;;;;13.20;3.38;;;24.80;95.90;;;;;;5052564;28;20514;-72
2022/06/26 12:47:18;;;;;;;11.15;4.45;;;24.40;95.70;;;;;;5040050;28;20033;-71
2022/06/26 12:49:44;;;;;;;11.00;3.83;;;23.50;96.40;;;;;;5051775;28;20035;-71
2022/06/26 12:52:10;;;;;;;8.60;3.67;;;23.20;97.90;;;;;;5052423;28;20047;-73
2022/06/26 12:54:36;;;;;;;11.63;3.42;;;23.40;97.40;;;;;;5052470;28;20036;-73
2022/06/26 12:57:02;;;;;;;7.97;3.50;;;23.00;97.30;;;;;;5052485;28;20021;-71